createdAt,value
2022-08-30T00:02:00.126Z,5.80
2022-08-30T00:07:04.405Z,8.70
2022-08-30T00:12:11.629Z,6.60
2022-08-30T00:22:19.330Z,5.40
2022-08-30T00:27:24.629Z,5.50
2022-08-30T00:32:28.162Z,5.50
2022-08-30T00:37:32.963Z,6.90
2022-08-30T00:42:37.386Z,7.90
2022-08-30T00:47:43.355Z,10.10
2022-08-30T00:52:51.719Z,8.10
2022-08-30T00:58:01.148Z,15.10
2022-08-30T01:03:10.266Z,5.80
2022-08-30T01:08:16.915Z,11.70
2022-08-30T01:18:27.146Z,6.60
2022-08-30T01:23:33.304Z,8.70
2022-08-30T01:28:42.945Z,8.50
2022-08-30T01:33:47.502Z,7.10
2022-08-30T01:38:57.507Z,6.50
2022-08-30T01:44:05.340Z,6.50
2022-08-30T01:49:13.990Z,6.10
2022-08-30T01:54:19.121Z,5.80
2022-08-30T01:59:24.159Z,6.20
2022-08-30T02:04:29.257Z,5.70
2022-08-30T02:09:34.125Z,5.60
2022-08-30T02:14:40.376Z,6.50
2022-08-30T02:19:45.023Z,8.90
2022-08-30T02:24:50.243Z,15.30
2022-08-30T02:29:54.973Z,10.50
2022-08-30T02:34:58.828Z,8.90
2022-08-30T02:40:05.411Z,10.60
2022-08-30T02:45:09.529Z,7.30
2022-08-30T02:50:16.887Z,9.50
2022-08-30T02:55:20.145Z,7.70
2022-08-30T03:00:24.416Z,11.20
2022-08-30T03:05:28.947Z,9.20
2022-08-30T03:10:33.423Z,9.50
2022-08-30T03:15:40.646Z,8.80
2022-08-30T03:20:46.328Z,11.70
2022-08-30T03:25:59.998Z,16.50
2022-08-30T03:31:05.427Z,12.20
2022-08-30T03:36:09.602Z,12.30
2022-08-30T03:41:13.996Z,12.50
2022-08-30T03:46:18.611Z,9.40
2022-08-30T03:51:29.581Z,8.40
2022-08-30T03:56:33.579Z,9.40
2022-08-30T04:01:37.717Z,9.60
2022-08-30T04:06:42.290Z,12.20
2022-08-30T04:11:46.917Z,9.30
2022-08-30T04:16:51.949Z,12.60
2022-08-30T04:21:55.653Z,14.80
2022-08-30T04:27:00.315Z,10.40
2022-08-30T04:32:05.561Z,9.30
2022-08-30T04:47:47.180Z,7.40
2022-08-30T04:52:50.152Z,6.60
2022-08-30T04:57:53.312Z,5.10
2022-08-30T05:02:56.790Z,6.00
2022-08-30T05:07:59.346Z,5.80
2022-08-30T05:13:01.916Z,7.90
2022-08-30T05:18:04.384Z,5.30
2022-08-30T05:23:07.240Z,6.10
2022-08-30T05:28:10.625Z,5.90
2022-08-30T05:33:13.809Z,6.80
2022-08-30T05:38:16.159Z,5.10
2022-08-30T05:43:19.530Z,5.80
2022-08-30T05:48:22.148Z,7.70
2022-08-30T05:53:24.964Z,6.40
2022-08-30T05:58:27.006Z,7.30
2022-08-30T06:03:32.379Z,5.10
2022-08-30T06:08:35.510Z,4.30
2022-08-30T06:13:39.985Z,4.00
2022-08-30T06:18:42.916Z,4.10
2022-08-30T06:23:46.222Z,4.30
2022-08-30T06:28:49.414Z,4.10
2022-08-30T06:33:52.725Z,5.80
2022-08-30T06:38:57.867Z,2.90
2022-08-30T06:44:02.490Z,2.90
2022-08-30T06:49:07.633Z,2.20
2022-08-30T06:54:12.131Z,2.60
2022-08-30T06:59:14.530Z,2.80
2022-08-30T07:04:17.674Z,2.80
2022-08-30T07:09:22.795Z,3.30
2022-08-30T07:14:27.291Z,2.00
2022-08-30T07:19:30.702Z,2.60
2022-08-30T07:24:32.933Z,2.80
2022-08-30T07:29:35.462Z,2.80
2022-08-30T07:34:38.279Z,4.00
2022-08-30T07:39:45.818Z,1.80
2022-08-30T07:44:52.693Z,2.90
2022-08-30T07:50:03.039Z,4.50
2022-08-30T07:55:07.083Z,3.50
2022-08-30T08:00:10.534Z,2.30
2022-08-30T08:05:17.299Z,3.60
2022-08-30T08:10:22.185Z,8.50
2022-08-30T08:15:26.095Z,3.00
2022-08-30T08:20:28.891Z,2.90
2022-08-30T08:25:32.351Z,4.10
2022-08-30T08:30:37.382Z,2.20
2022-08-30T08:35:40.441Z,3.10
2022-08-30T08:41:26.639Z,5.10
2022-08-30T08:47:02.336Z,5.60
2022-08-30T08:52:28.075Z,2.20
2022-08-30T08:57:37.186Z,3.00
2022-08-30T09:02:46.462Z,4.80
2022-08-30T09:07:54.802Z,4.60
2022-08-30T09:13:00.145Z,2.40
2022-08-30T09:18:45.524Z,1.80
2022-08-30T09:23:54.427Z,1.80
2022-08-30T09:28:58.746Z,3.00
2022-08-30T09:34:06.411Z,3.80
2022-08-30T09:39:19.270Z,2.00
2022-08-30T09:44:30.437Z,1.80
2022-08-30T09:49:39.255Z,1.50
2022-08-30T09:55:03.059Z,3.00
2022-08-30T10:00:17.139Z,1.80
2022-08-30T10:05:46.661Z,2.20
2022-08-30T10:10:56.101Z,1.90
2022-08-30T10:16:34.465Z,3.30
2022-08-30T10:22:23.090Z,1.60
2022-08-30T10:27:34.525Z,0.90
2022-08-30T10:32:47.380Z,0.50
2022-08-30T10:38:26.176Z,0.50
2022-08-30T10:43:46.263Z,2.20
2022-08-30T10:48:56.129Z,2.40
2022-08-30T10:54:15.609Z,0.80
2022-08-30T10:59:20.960Z,0.80
2022-08-30T11:05:14.680Z,2.60
2022-08-30T11:10:43.360Z,1.00
2022-08-30T11:16:00.839Z,1.30
2022-08-30T11:21:22.208Z,1.50
2022-08-30T11:26:49.760Z,2.40
2022-08-30T11:31:53.519Z,3.40
2022-08-30T11:37:03.327Z,3.30
2022-08-30T11:42:29.370Z,1.30
2022-08-30T11:47:42.082Z,2.70
2022-08-30T11:53:07.008Z,4.60
2022-08-30T11:58:39.347Z,1.80
2022-08-30T12:04:15.293Z,0.80
2022-08-30T12:09:20.286Z,2.50
2022-08-30T12:14:38.134Z,3.10
2022-08-30T12:19:50.164Z,0.80
2022-08-30T12:24:55.598Z,3.00
2022-08-30T12:30:02.021Z,1.00
2022-08-30T12:35:07.917Z,0.80
2022-08-30T12:40:22.510Z,1.10
2022-08-30T12:45:30.946Z,2.40
2022-08-30T12:50:57.682Z,0.90
2022-08-30T12:56:04.754Z,1.70
2022-08-30T13:01:36.300Z,1.10
2022-08-30T13:06:56.163Z,0.70
2022-08-30T13:12:00.954Z,0.60
2022-08-30T13:17:12.481Z,1.60
2022-08-30T13:22:34.362Z,0.60
2022-08-30T13:27:39.974Z,3.20
2022-08-30T13:32:43.737Z,2.30
2022-08-30T13:37:49.555Z,0.60
2022-08-30T13:42:54.344Z,1.00
2022-08-30T13:48:00.183Z,1.90
2022-08-30T13:53:04.073Z,1.20
2022-08-30T13:58:07.110Z,0.30
2022-08-30T14:03:09.860Z,1.70
2022-08-30T14:19:10.285Z,0.50
2022-08-30T14:24:13.500Z,1.50
2022-08-30T14:29:25.798Z,0.50
2022-08-30T14:34:31.651Z,0.60
2022-08-30T14:39:35.745Z,0.90
2022-08-30T14:44:55.066Z,0.60
2022-08-30T14:50:00.981Z,1.40
2022-08-30T14:55:09.066Z,0.40
2022-08-30T15:00:12.830Z,0.70
2022-08-30T15:05:16.381Z,0.60
2022-08-30T15:10:21.117Z,1.10
2022-08-30T15:15:24.799Z,0.90
2022-08-30T15:20:27.906Z,2.20
2022-08-30T15:25:31.643Z,0.60
2022-08-30T15:30:35.291Z,1.40
2022-08-30T15:35:39.041Z,1.10
2022-08-30T15:40:43.464Z,1.70
2022-08-30T15:45:46.874Z,2.40
2022-08-30T15:51:08.451Z,0.80
2022-08-30T15:56:12.259Z,0.50
2022-08-30T16:01:16.252Z,6.60
2022-08-30T16:06:26.267Z,0.80
2022-08-30T16:11:30.079Z,2.20
2022-08-30T16:16:32.892Z,1.10
2022-08-30T16:21:36.703Z,0.70
2022-08-30T16:26:40.197Z,3.70
2022-08-30T16:31:44.951Z,1.50
2022-08-30T16:36:47.848Z,1.90
2022-08-30T16:41:51.248Z,0.90
2022-08-30T16:46:53.999Z,3.70
2022-08-30T16:51:57.016Z,1.60
2022-08-30T16:57:00.235Z,1.00
2022-08-30T17:02:04.656Z,1.30
2022-08-30T17:07:07.541Z,1.50
2022-08-30T17:12:16.854Z,3.40
2022-08-30T17:17:22.104Z,3.90
2022-08-30T17:22:25.311Z,1.00
2022-08-30T17:27:29.156Z,0.80
2022-08-30T17:32:31.483Z,1.80
2022-08-30T17:37:34.628Z,4.60
2022-08-30T17:42:40.733Z,0.90
2022-08-30T17:47:44.630Z,2.10
2022-08-30T17:52:47.956Z,1.30
2022-08-30T17:57:50.811Z,0.90
2022-08-30T18:02:53.700Z,1.20
2022-08-30T18:07:59.271Z,4.20
2022-08-30T18:13:03.211Z,10.60
2022-08-30T18:18:06.452Z,3.00
2022-08-30T18:23:09.438Z,1.00
2022-08-30T18:28:15.665Z,3.20
2022-08-30T18:33:19.736Z,2.20
2022-08-30T18:38:26.328Z,13.90
2022-08-30T18:43:35.121Z,1.50
2022-08-30T18:48:37.713Z,3.50
2022-08-30T18:53:40.654Z,1.90
2022-08-30T18:58:50.571Z,1.40
2022-08-30T19:03:54.087Z,3.20
2022-08-30T19:08:57.410Z,1.80
2022-08-30T19:14:03.573Z,5.60
2022-08-30T19:19:05.890Z,3.10
2022-08-30T19:24:08.754Z,2.40
2022-08-30T19:29:11.899Z,1.90
2022-08-30T19:34:14.118Z,2.30
2022-08-30T19:39:19.939Z,2.60
2022-08-30T19:44:22.233Z,2.30
2022-08-30T19:49:24.321Z,2.70
2022-08-30T19:54:27.116Z,4.30
2022-08-30T19:59:29.304Z,2.80
2022-08-30T20:04:33.183Z,2.80
2022-08-30T20:09:36.400Z,2.20
2022-08-30T20:14:40.136Z,2.20
2022-08-30T20:19:46.233Z,2.10
2022-08-30T20:24:49.052Z,1.80
2022-08-30T20:29:53.479Z,2.20
2022-08-30T20:34:56.692Z,5.10
2022-08-30T20:40:01.646Z,1.70
2022-08-30T20:45:06.425Z,2.40
2022-08-30T20:50:14.225Z,1.50
2022-08-30T20:55:18.296Z,3.60
2022-08-30T21:00:21.671Z,1.90
2022-08-30T21:05:25.364Z,2.40
2022-08-30T21:10:28.040Z,2.00
2022-08-30T21:15:38.383Z,4.20
2022-08-30T21:20:42.210Z,1.80
2022-08-30T21:25:45.777Z,3.20
2022-08-30T21:30:48.365Z,2.60
2022-08-30T21:36:10.166Z,1.90
2022-08-30T21:41:12.668Z,4.40
2022-08-30T21:46:17.325Z,4.70
2022-08-30T21:51:21.156Z,2.20
2022-08-30T21:56:23.789Z,6.50
2022-08-30T22:01:29.713Z,1.80
2022-08-30T22:06:34.048Z,1.80
2022-08-30T22:11:40.101Z,1.70
2022-08-30T22:16:46.492Z,1.20
2022-08-30T22:21:50.316Z,1.90
2022-08-30T22:26:56.737Z,1.70
2022-08-30T22:31:59.974Z,3.20
2022-08-30T22:37:02.310Z,1.30
2022-08-30T22:42:04.729Z,6.10
2022-08-30T22:47:08.708Z,2.40
2022-08-30T22:52:12.455Z,4.70
2022-08-30T22:57:17.840Z,2.30
2022-08-30T23:02:26.019Z,3.20
2022-08-30T23:07:29.254Z,1.50
2022-08-30T23:12:32.489Z,4.70
2022-08-30T23:17:39.598Z,1.30
2022-08-30T23:22:45.500Z,2.70
2022-08-30T23:28:05.958Z,1.40
2022-08-30T23:33:26.601Z,1.80
2022-08-30T23:38:47.220Z,4.40
2022-08-30T23:44:07.850Z,1.80
2022-08-30T23:49:28.686Z,5.10
2022-08-30T23:54:49.190Z,3.10
